Time;durP1;ratioP1;P1;durP2;ratioP2;P2;SDS_P1;SDS_P2;PMS_P1;PMS_P2;Temp;Humidity;BMP_temperature;BMP_pressure;BME280_temperature;BME280_humidity;BME280_pressure;Samples;Min_cycle;Max_cycle;Signal;HPM_P1;HPM_P2
2021/07/26 00:00:19;;;;;;;;;;;615.30;2432.00;;;;;;5053202;28;19905;-82
2021/07/26 00:02:44;;;;;;;;;;;615.20;2432.00;;;;;;5053064;28;19908;-76
2021/07/26 00:05:10;;;;;;;;;;;615.20;2432.00;;;;;;5052570;28;19913;-81
2021/07/26 00:07:36;;;;;;;;;;;615.20;2432.00;;;;;;5051692;28;19908;-75
2021/07/26 00:10:03;;;;;;;;;;;615.20;2432.00;;;;;;5073151;28;19908;-73
2021/07/26 00:12:29;;;;;;;;;;;615.10;2432.00;;;;;;5072978;28;19991;-74
2021/07/26 00:14:55;;;;;;;;;;;615.10;2432.00;;;;;;5073002;28;19991;-80
2021/07/26 00:17:20;;;;;;;;;;;615.00;2432.00;;;;;;5072994;28;19904;-80
2021/07/26 00:19:46;;;;;;;;;;;614.90;2432.00;;;;;;5076425;28;19912;-79
2021/07/26 00:22:11;;;;;;;;;;;614.80;2432.00;;;;;;5076120;28;19904;-77
2021/07/26 00:24:37;;;;;;;;;;;614.80;2432.00;;;;;;5073334;28;19908;-74
2021/07/26 00:27:03;;;;;;;;;;;614.80;2432.00;;;;;;5073003;28;19904;-73
2021/07/26 00:29:28;;;;;;;;;;;614.70;2432.00;;;;;;5072792;28;20395;-73
2021/07/26 00:31:54;;;;;;;;;;;614.60;2432.00;;;;;;5072818;28;19905;-72
2021/07/26 00:34:19;;;;;;;;;;;614.60;2432.00;;;;;;5072988;28;19935;-74
2021/07/26 00:36:58;;;;;;;;;;;614.50;2432.00;;;;;;5073189;28;20065;-72
2021/07/26 00:39:25;;;;;;;;;;;614.40;2432.00;;;;;;5070505;28;20312;-72
2021/07/26 00:41:51;;;;;;;;;;;614.40;2432.00;;;;;;5072828;28;19927;-73
2021/07/26 00:44:17;;;;;;;;;;;614.40;2432.00;;;;;;5072843;28;20358;-72
2021/07/26 00:46:43;;;;;;;;;;;589.70;2432.00;;;;;;5072924;28;20030;-73
2021/07/26 00:49:10;;;;;;;;;;;589.70;2432.00;;;;;;5072647;28;19915;-72
2021/07/26 00:51:37;;;;;;;;;;;589.70;2432.00;;;;;;5062315;28;19908;-81
2021/07/26 00:54:03;;;;;;;;;;;589.70;2432.00;;;;;;5072762;28;19905;-76
2021/07/26 00:56:29;;;;;;;;;;;589.70;2432.00;;;;;;5072739;28;19915;-81
2021/07/26 00:58:55;;;;;;;;;;;589.70;2432.00;;;;;;5072616;28;19912;-73
2021/07/26 01:01:20;;;;;;;;;;;589.70;2432.00;;;;;;5072524;28;19908;-72
2021/07/26 01:03:46;;;;;;;;;;;589.60;2432.00;;;;;;5072571;28;20401;-72
2021/07/26 01:06:12;;;;;;;;;;;589.60;2432.00;;;;;;5072760;28;20010;-75
2021/07/26 01:08:39;;;;;;;;;;;589.70;2432.00;;;;;;5072769;28;20027;-71
2021/07/26 01:11:05;;;;;;;;;;;589.60;2432.00;;;;;;5072651;28;19904;-73
2021/07/26 01:13:31;;;;;;;;;;;589.60;2432.00;;;;;;5075943;28;19943;-73
2021/07/26 01:15:56;;;;;;;;;;;589.70;2432.00;;;;;;5076366;28;19911;-73
2021/07/26 01:18:28;;;;;;;;;;;589.70;2432.00;;;;;;5076142;28;19908;-80
2021/07/26 01:20:56;;;;;;;;;;;589.70;2432.00;;;;;;5076356;28;19999;-75
2021/07/26 01:23:23;;;;;;;;;;;589.70;2432.00;;;;;;5075937;28;20045;-73
2021/07/26 01:25:48;;;;;;;;;;;589.70;2432.00;;;;;;5076371;28;19995;-76
2021/07/26 01:28:15;;;;;;;;;;;589.70;2432.00;;;;;;5076137;28;20418;-77
2021/07/26 01:30:41;;;;;;;;;;;589.70;2432.00;;;;;;5076313;28;19980;-80
2021/07/26 01:33:07;;;;;;;;;;;589.70;2432.00;;;;;;5075674;28;19912;-73
2021/07/26 01:35:32;;;;;;;;;;;589.70;2432.00;;;;;;5075906;28;19923;-72
2021/07/26 01:37:58;;;;;;;;;;;589.70;2432.00;;;;;;5075892;28;19910;-76
2021/07/26 01:40:24;;;;;;;;;;;589.60;2432.00;;;;;;5075928;28;19991;-77
2021/07/26 01:42:59;;;;;;;;;;;589.60;2432.00;;;;;;5068970;28;19908;-80
2021/07/26 01:45:25;;;;;;;;;;;589.60;2432.00;;;;;;5075883;28;19911;-81
2021/07/26 01:47:52;;;;;;;;;;;589.50;2432.00;;;;;;5075731;28;19904;-71
2021/07/26 01:50:18;;;;;;;;;;;589.50;2432.00;;;;;;5075575;28;20378;-73
2021/07/26 01:52:44;;;;;;;;;;;589.40;2432.00;;;;;;5075612;28;19904;-72
2021/07/26 01:55:10;;;;;;;;;;;589.40;2432.00;;;;;;5075704;28;19979;-81
2021/07/26 01:57:36;;;;;;;;;;;589.40;2432.00;;;;;;5075368;28;20285;-81
2021/07/26 02:00:03;;;;;;;;;;;589.40;2432.00;;;;;;5075542;28;19904;-81
2021/07/26 02:02:28;;;;;;;;;;;589.50;2432.00;;;;;;5075572;28;19912;-76
2021/07/26 02:04:55;;;;;;;;;;;589.60;2432.00;;;;;;5075369;28;19987;-77
2021/07/26 02:07:21;;;;;;;;;;;589.60;2432.00;;;;;;5074422;28;20390;-77
2021/07/26 02:09:46;;;;;;;;;;;589.50;2432.00;;;;;;5075045;28;19924;-76
2021/07/26 02:12:12;;;;;;;;;;;589.40;2432.00;;;;;;5074988;28;19908;-76
2021/07/26 02:14:37;;;;;;;;;;;589.30;2432.00;;;;;;5073733;28;19916;-75
2021/07/26 02:17:03;;;;;;;;;;;589.20;2432.00;;;;;;5073988;28;19904;-73
2021/07/26 02:19:28;;;;;;;;;;;589.10;2432.00;;;;;;5073948;28;19904;-72
2021/07/26 02:21:54;;;;;;;;;;;589.10;2432.00;;;;;;5074211;28;19905;-76
2021/07/26 02:24:20;;;;;;;;;;;589.00;2432.00;;;;;;5074065;28;20260;-81
2021/07/26 02:26:45;;;;;;;;;;;589.00;2432.00;;;;;;5073873;28;19912;-73
2021/07/26 02:29:11;;;;;;;;;;;589.00;2432.00;;;;;;5073815;28;19966;-73
2021/07/26 02:31:36;;;;;;;;;;;589.00;2432.00;;;;;;5073984;28;19904;-76
2021/07/26 02:34:02;;;;;;;;;;;589.10;2432.00;;;;;;5073762;28;19987;-72
2021/07/26 02:36:28;;;;;;;;;;;589.10;2432.00;;;;;;5073895;28;19908;-82
2021/07/26 02:38:53;;;;;;;;;;;589.10;2432.00;;;;;;5055904;28;19904;-82
2021/07/26 02:41:20;;;;;;;;;;;589.10;2432.00;;;;;;5073864;28;19904;-80
2021/07/26 02:43:45;;;;;;;;;;;589.10;2432.00;;;;;;5055733;28;20252;-74
2021/07/26 02:46:11;;;;;;;;;;;589.20;2432.00;;;;;;5073789;28;19904;-72
2021/07/26 02:48:37;;;;;;;;;;;589.20;2432.00;;;;;;5073589;28;19916;-72
2021/07/26 02:51:03;;;;;;;;;;;589.10;2432.00;;;;;;5061371;28;19940;-76
2021/07/26 02:53:29;;;;;;;;;;;589.20;2432.00;;;;;;5073699;28;19955;-80
2021/07/26 02:55:54;;;;;;;;;;;589.20;2432.00;;;;;;5073303;28;19911;-72
2021/07/26 02:58:20;;;;;;;;;;;589.20;2432.00;;;;;;5073270;28;20402;-78
2021/07/26 03:00:46;;;;;;;;;;;589.10;2432.00;;;;;;5073377;28;19999;-78
2021/07/26 03:03:12;;;;;;;;;;;589.10;2432.00;;;;;;5073401;28;19905;-78
2021/07/26 03:05:37;;;;;;;;;;;589.10;2432.00;;;;;;5073449;28;19904;-72
2021/07/26 03:08:03;;;;;;;;;;;589.10;2432.00;;;;;;5073263;28;19904;-76
2021/07/26 03:10:29;;;;;;;;;;;588.90;2432.00;;;;;;5073367;28;19914;-82
2021/07/26 03:12:54;;;;;;;;;;;588.90;2432.00;;;;;;5031125;28;1210449;-77
2021/07/26 03:15:21;;;;;;;;;;;588.90;2432.00;;;;;;5074102;28;19909;-74
2021/07/26 03:17:47;;;;;;;;;;;588.90;2432.00;;;;;;5074337;28;19904;-74
2021/07/26 03:20:13;;;;;;;;;;;588.90;2432.00;;;;;;5073855;28;20045;-76
2021/07/26 03:22:39;;;;;;;;;;;588.80;2432.00;;;;;;5073978;28;19911;-81
2021/07/26 03:25:04;;;;;;;;;;;564.10;2432.00;;;;;;5073845;28;20213;-74
2021/07/26 03:27:30;;;;;;;;;;;564.10;2432.00;;;;;;5073870;28;19904;-81
2021/07/26 03:29:56;;;;;;;;;;;564.10;2432.00;;;;;;5055812;28;20362;-80
2021/07/26 03:32:21;;;;;;;;;;;564.10;2432.00;;;;;;5055913;28;19950;-80
2021/07/26 03:34:47;;;;;;;;;;;564.10;2432.00;;;;;;5066721;28;19910;-75
2021/07/26 03:37:12;;;;;;;;;;;564.10;2432.00;;;;;;5066352;28;19909;-80
2021/07/26 03:39:38;;;;;;;;;;;564.10;2432.00;;;;;;5073912;28;19953;-75
2021/07/26 03:42:03;;;;;;;;;;;564.10;2432.00;;;;;;5073484;28;19904;-75
2021/07/26 03:44:29;;;;;;;;;;;564.10;2432.00;;;;;;5062419;28;19973;-73
2021/07/26 03:46:57;;;;;;;;;;;564.10;2432.00;;;;;;5073390;28;20263;-72
2021/07/26 03:49:23;;;;;;;;;;;564.10;2432.00;;;;;;5068371;28;19978;-73
2021/07/26 03:51:48;;;;;;;;;;;564.10;2432.00;;;;;;5054162;28;20374;-72
2021/07/26 03:54:14;;;;;;;;;;;564.10;2432.00;;;;;;5062281;28;19904;-72
2021/07/26 03:56:39;;;;;;;;;;;564.10;2432.00;;;;;;5071545;28;20003;-76
2021/07/26 03:59:05;;;;;;;;;;;564.10;2432.00;;;;;;5073155;28;19912;-73
2021/07/26 04:01:30;;;;;;;;;;;564.10;2432.00;;;;;;5073231;28;19904;-72
2021/07/26 04:03:56;;;;;;;;;;;564.10;2432.00;;;;;;5073284;28;19962;-72
2021/07/26 04:06:22;;;;;;;;;;;564.10;2432.00;;;;;;5073454;28;19915;-72
2021/07/26 04:08:50;;;;;;;;;;;564.10;2432.00;;;;;;5073263;28;20274;-73
2021/07/26 04:11:21;;;;;;;;;;;564.10;2432.00;;;;;;5073032;28;19923;-73
2021/07/26 04:13:52;;;;;;;;;;;564.10;2432.00;;;;;;5073064;28;19916;-72
2021/07/26 04:16:17;;;;;;;;;;;564.00;2432.00;;;;;;5073259;28;19994;-72
2021/07/26 04:18:46;;;;;;;;;;;564.10;2432.00;;;;;;5073171;28;20743;-72
2021/07/26 04:21:11;;;;;;;;;;;564.10;2432.00;;;;;;5073187;28;19912;-72
2021/07/26 04:23:37;;;;;;;;;;;564.10;2432.00;;;;;;5072872;28;19904;-73
2021/07/26 04:26:03;;;;;;;;;;;588.80;2432.00;;;;;;5073404;28;19904;-72
2021/07/26 04:28:28;;;;;;;;;;;588.80;2432.00;;;;;;5073167;28;19908;-72
2021/07/26 04:30:54;;;;;;;;;;;564.10;2432.00;;;;;;5072955;28;20365;-81
2021/07/26 04:33:19;;;;;;;;;;;588.80;2432.00;;;;;;5072838;28;19904;-80
2021/07/26 04:35:45;;;;;;;;;;;588.80;2432.00;;;;;;5072992;28;19999;-79
2021/07/26 04:38:11;;;;;;;;;;;588.90;2432.00;;;;;;5072971;28;19904;-71
2021/07/26 04:40:36;;;;;;;;;;;589.00;2432.00;;;;;;5072728;28;19987;-72
2021/07/26 04:43:02;;;;;;;;;;;589.00;2432.00;;;;;;5072840;28;19911;-72
2021/07/26 04:45:27;;;;;;;;;;;589.10;2432.00;;;;;;5072722;28;19953;-73
2021/07/26 04:47:53;;;;;;;;;;;589.10;2432.00;;;;;;5075644;28;20385;-72
2021/07/26 04:50:18;;;;;;;;;;;589.10;2432.00;;;;;;5076765;28;19909;-73
2021/07/26 04:52:44;;;;;;;;;;;589.20;2432.00;;;;;;5076818;28;19930;-73
2021/07/26 04:55:10;;;;;;;;;;;589.20;2432.00;;;;;;5076844;28;19951;-81
2021/07/26 04:57:36;;;;;;;;;;;589.20;2432.00;;;;;;5076616;28;20414;-76
2021/07/26 05:00:02;;;;;;;;;;;589.30;2432.00;;;;;;5076902;28;19935;-74
2021/07/26 05:02:27;;;;;;;;;;;589.30;2432.00;;;;;;5076668;28;19905;-75
2021/07/26 05:04:53;;;;;;;;;;;589.40;2432.00;;;;;;5076484;28;19912;-71
2021/07/26 05:07:18;;;;;;;;;;;589.50;2432.00;;;;;;5076869;28;20290;-72
2021/07/26 05:09:44;;;;;;;;;;;589.60;2432.00;;;;;;5076431;28;19952;-71
2021/07/26 05:12:12;;;;;;;;;;;589.50;2432.00;;;;;;5076260;28;20367;-72
2021/07/26 05:14:39;;;;;;;;;;;589.50;2432.00;;;;;;5076529;28;19966;-72
2021/07/26 05:17:04;;;;;;;;;;;589.50;2432.00;;;;;;5076649;28;19935;-72
2021/07/26 05:19:30;;;;;;;;;;;589.50;2432.00;;;;;;5076227;28;19908;-72
2021/07/26 05:21:55;;;;;;;;;;;589.60;2432.00;;;;;;5076426;28;19995;-73
2021/07/26 05:24:21;;;;;;;;;;;589.60;2432.00;;;;;;5076250;28;19931;-74
2021/07/26 05:26:47;;;;;;;;;;;589.60;2432.00;;;;;;5076024;28;20003;-72
2021/07/26 05:29:12;;;;;;;;;;;589.60;2432.00;;;;;;5076055;28;19972;-73
2021/07/26 05:31:38;;;;;;;;;;;589.60;2432.00;;;;;;5076004;28;20351;-72
2021/07/26 05:34:03;;;;;;;;;;;589.70;2432.00;;;;;;5076018;28;19905;-72
2021/07/26 05:36:29;;;;;;;;;;;589.60;2432.00;;;;;;5076196;28;19934;-81
2021/07/26 05:38:54;;;;;;;;;;;589.70;2432.00;;;;;;5075815;28;19950;-83
2021/07/26 05:41:20;;;;;;;;;;;589.70;2432.00;;;;;;5075795;28;20003;-81
2021/07/26 05:43:46;;;;;;;;;;;614.50;2432.00;;;;;;5057925;28;19908;-81
2021/07/26 05:46:11;;;;;;;;;;;614.60;2432.00;;;;;;5076044;28;19904;-73
2021/07/26 05:48:37;;;;;;;;;;;614.60;2432.00;;;;;;5075908;28;20354;-74
2021/07/26 05:51:04;;;;;;;;;;;614.70;2432.00;;;;;;5075527;28;19958;-74
2021/07/26 05:53:29;;;;;;;;;;;614.80;2432.00;;;;;;5075617;28;19904;-73
2021/07/26 05:55:55;;;;;;;;;;;614.80;2432.00;;;;;;5075540;28;19957;-73
2021/07/26 05:58:21;;;;;;;;;;;614.90;2432.00;;;;;;5075308;28;19940;-81
2021/07/26 06:00:57;;;;;;;;;;;615.00;2432.00;;;;;;5075566;28;19954;-76
2021/07/26 06:03:22;;;;;;;;;;;615.10;2432.00;;;;;;5075919;28;20298;-76
2021/07/26 06:05:48;;;;;;;;;;;615.20;2432.00;;;;;;5075551;28;19912;-75
2021/07/26 06:08:13;;;;;;;;;;;615.30;2432.00;;;;;;5075436;28;20363;-74
2021/07/26 06:10:39;;;;;;;;;;;640.00;2432.00;;;;;;5075358;28;19908;-73
2021/07/26 06:13:05;;;;;;;;;;;640.10;2432.00;;;;;;5075056;28;19956;-73
2021/07/26 06:15:30;;;;;;;;;;;640.30;2432.00;;;;;;5075300;28;19911;-73
2021/07/26 06:17:56;;;;;;;;;;;640.30;2432.00;;;;;;5075240;28;19965;-73
2021/07/26 06:20:22;;;;;;;;;;;640.40;2432.00;;;;;;5075232;28;19919;-73
2021/07/26 06:22:50;;;;;;;;;;;640.50;2432.00;;;;;;5075403;28;19915;-73
2021/07/26 06:25:16;;;;;;;;;;;640.60;2432.00;;;;;;5074151;28;19944;-73
2021/07/26 06:27:41;;;;;;;;;;;640.60;2432.00;;;;;;5073921;28;20334;-72
2021/07/26 06:30:07;;;;;;;;;;;640.60;2432.00;;;;;;5074709;28;19920;-72
2021/07/26 06:32:34;;;;;;;;;;;640.70;2432.00;;;;;;5075173;28;19915;-76
2021/07/26 06:35:00;;;;;;;;;;;640.80;2432.00;;;;;;5074877;28;19912;-81
2021/07/26 06:37:26;;;;;;;;;;;640.80;2432.00;;;;;;5075156;28;20058;-81
2021/07/26 06:39:52;;;;;;;;;;;640.90;2432.00;;;;;;5075090;28;19904;-81
2021/07/26 06:42:18;;;;;;;;;;;640.90;2432.00;;;;;;5052966;28;19913;-83
2021/07/26 06:44:44;;;;;;;;;;;665.60;2432.00;;;;;;5064920;28;19908;-82
2021/07/26 06:47:10;;;;;;;;;;;665.70;2432.00;;;;;;5074970;28;19911;-84
2021/07/26 06:49:36;;;;;;;;;;;665.70;2432.00;;;;;;5074737;28;19912;-83
2021/07/26 06:52:02;;;;;;;;;;;665.80;2432.00;;;;;;5074267;28;19912;-71
2021/07/26 06:54:28;;;;;;;;;;;665.90;2432.00;;;;;;5074000;28;19912;-72
2021/07/26 06:56:53;;;;;;;;;;;666.00;2432.00;;;;;;5074309;28;19927;-82
2021/07/26 06:59:19;;;;;;;;;;;666.10;2432.00;;;;;;5073802;28;20363;-81
2021/07/26 07:01:45;;;;;;;;;;;666.30;2432.00;;;;;;5074552;28;19991;-76
2021/07/26 07:04:10;;;;;;;;;;;666.50;2432.00;;;;;;5070272;28;20272;-71
2021/07/26 07:06:36;;;;;;;;;;;691.20;2432.00;;;;;;5068565;28;19913;-72
2021/07/26 07:09:01;;;;;;;;;;;691.30;2432.00;;;;;;5073481;28;19919;-76
2021/07/26 07:11:27;;;;;;;;;;;691.40;2432.00;;;;;;5073921;28;19952;-81
2021/07/26 07:13:54;;;;;;;;;;;691.60;2432.00;;;;;;5056227;28;19916;-75
2021/07/26 07:16:21;;;;;;;;;;;691.80;2432.00;;;;;;5074139;28;19908;-82
2021/07/26 07:18:48;;;;;;;;;;;691.90;2406.40;;;;;;5074400;28;20286;-76
2021/07/26 07:21:17;;;;;;;;;;;716.80;2406.40;;;;;;5073641;28;19909;-79
2021/07/26 07:23:43;;;;;;;;;;;716.90;2406.40;;;;;;5073799;28;19998;-81
2021/07/26 07:26:09;;;;;;;;;;;717.10;2380.80;;;;;;5073638;28;20370;-76
2021/07/26 07:28:34;;;;;;;;;;;717.20;2380.80;;;;;;5073784;28;19908;-81
2021/07/26 07:31:00;;;;;;;;;;;717.50;2355.20;;;;;;5073617;28;19911;-75
2021/07/26 07:33:26;;;;;;;;;;;717.70;2329.60;;;;;;5073653;28;20542;-79
2021/07/26 07:35:52;;;;;;;;;;;742.40;2380.80;;;;;;5073456;28;19905;-79
2021/07/26 07:38:17;;;;;;;;;;;742.40;2355.20;;;;;;5073371;28;19911;-74
2021/07/26 07:40:43;;;;;;;;;;;742.70;2304.00;;;;;;5073370;28;19904;-78
2021/07/26 07:43:08;;;;;;;;;;;742.70;2304.00;;;;;;5073433;28;20282;-80
2021/07/26 07:45:34;;;;;;;;;;;742.80;2304.00;;;;;;5073051;28;19931;-83
2021/07/26 07:48:01;;;;;;;;;;;742.80;2329.60;;;;;;5073373;28;19904;-83
2021/07/26 07:50:26;;;;;;;;;;;742.80;2304.00;;;;;;5073156;28;19912;-83
2021/07/26 07:52:53;;;;;;;;;;;743.00;2252.80;;;;;;5073296;28;19904;-85
2021/07/26 07:55:19;;;;;;;;;;;743.30;2252.80;;;;;;5072565;28;19958;-78
2021/07/26 07:57:48;;;;;;;;;;;768.10;2252.80;;;;;;5072786;28;20346;-74
2021/07/26 08:00:14;;;;;;;;;;;768.40;2201.60;;;;;;5073064;28;19956;-77
2021/07/26 08:02:41;;;;;;;;;;;768.60;2252.80;;;;;;5072936;28;19947;-83
2021/07/26 08:05:07;;;;;;;;;;;768.80;2176.00;;;;;;5073269;28;19905;-81
2021/07/26 08:07:33;;;;;;;;;;;793.60;2201.60;;;;;;5073264;28;19909;-84
2021/07/26 08:09:59;;;;;;;;;;;793.90;2176.00;;;;;;5072816;28;19923;-85
2021/07/26 08:12:24;;;;;;;;;;;794.00;2150.40;;;;;;5054963;28;19916;-85
2021/07/26 08:14:50;;;;;;;;;;;794.00;2124.80;;;;;;5054968;28;19904;-85
2021/07/26 08:17:16;;;;;;;;;;;794.50;2099.20;;;;;;5055134;28;19951;-84
2021/07/26 08:19:41;;;;;;;;;;;794.50;2073.60;;;;;;5073084;28;19916;-86
2021/07/26 08:22:07;;;;;;;;;;;794.30;2099.20;;;;;;5073022;28;19909;-84
2021/07/26 08:24:32;;;;;;;;;;;794.50;2073.60;;;;;;5072957;28;19908;-84
2021/07/26 08:26:58;;;;;;;;;;;819.40;2022.40;;;;;;5072866;28;19905;-83
2021/07/26 08:29:23;;;;;;;;;;;819.60;1971.20;;;;;;5066699;28;19912;-75
2021/07/26 08:31:49;;;;;;;;;;;820.00;1971.20;;;;;;5069046;28;19991;-74
2021/07/26 08:34:15;;;;;;;;;;;845.00;1971.20;;;;;;5072899;28;19912;-75
2021/07/26 08:36:40;;;;;;;;;;;845.70;1920.00;;;;;;5072672;28;20370;-74
2021/07/26 08:39:06;;;;;;;;;;;870.70;1868.80;;;;;;5072707;28;19908;-75
2021/07/26 08:41:31;;;;;;;;;;;871.20;1817.60;;;;;;5072942;28;19954;-73
2021/07/26 08:43:57;;;;;;;;;;;870.50;1817.60;;;;;;5072651;28;19904;-74
2021/07/26 08:46:24;;;;;;;;;;;845.70;1868.80;;;;;;5072649;28;19927;-74
2021/07/26 08:48:50;;;;;;;;;;;870.70;1792.00;;;;;;5072291;28;19914;-73
2021/07/26 08:51:17;;;;;;;;;;;870.70;1792.00;;;;;;5072829;28;19908;-72
2021/07/26 08:53:42;;;;;;;;;;;845.70;1792.00;;;;;;5072450;28;19911;-75
2021/07/26 08:56:08;;;;;;;;;;;845.30;1817.60;;;;;;5072423;28;19904;-73
2021/07/26 08:58:35;;;;;;;;;;;844.80;1817.60;;;;;;5072551;28;20374;-74
2021/07/26 09:01:01;;;;;;;;;;;819.80;1868.80;;;;;;5072709;28;19973;-75
2021/07/26 09:03:26;;;;;;;;;;;819.30;1894.40;;;;;;5072413;28;20367;-74
2021/07/26 09:05:52;;;;;;;;;;;794.40;1894.40;;;;;;5072876;28;19909;-73
2021/07/26 09:08:18;;;;;;;;;;;794.00;1945.60;;;;;;5072304;28;19904;-74
2021/07/26 09:10:44;;;;;;;;;;;793.90;1945.60;;;;;;5072335;28;20278;-73
2021/07/26 09:13:11;;;;;;;;;;;793.70;1971.20;;;;;;5062345;28;19959;-73
2021/07/26 09:15:37;;;;;;;;;;;768.90;1971.20;;;;;;5072533;28;19908;-73
2021/07/26 09:18:06;;;;;;;;;;;768.60;1971.20;;;;;;5072195;28;19912;-74
2021/07/26 09:20:35;;;;;;;;;;;768.50;1945.60;;;;;;5054482;28;19963;-73
2021/07/26 09:23:12;;;;;;;;;;;768.40;1996.80;;;;;;5072342;28;19953;-75
2021/07/26 09:25:38;;;;;;;;;;;768.40;1945.60;;;;;;5068844;28;19999;-74
2021/07/26 09:28:05;;;;;;;;;;;768.60;1996.80;;;;;;5072315;28;19995;-77
2021/07/26 09:30:35;;;;;;;;;;;768.90;1971.20;;;;;;5072030;28;19919;-77
2021/07/26 09:33:01;;;;;;;;;;;768.90;1971.20;;;;;;5073447;28;20473;-77
2021/07/26 09:35:26;;;;;;;;;;;793.70;1971.20;;;;;;5075908;28;19912;-74
2021/07/26 09:38:03;;;;;;;;;;;793.70;1996.80;;;;;;5075798;28;19905;-75
2021/07/26 09:40:32;;;;;;;;;;;793.80;2022.40;;;;;;5065077;28;20000;-73
2021/07/26 09:43:15;;;;;;;;;;;794.00;1996.80;;;;;;5074786;28;19904;-74
2021/07/26 09:45:42;;;;;;;;;;;794.00;1996.80;;;;;;5072589;28;19995;-74
2021/07/26 09:48:09;;;;;;;;;;;794.20;1971.20;;;;;;5060290;28;19948;-74
2021/07/26 09:50:39;;;;;;;;;;;794.10;1971.20;;;;;;5056966;28;20314;-75
2021/07/26 09:53:12;;;;;;;;;;;794.00;1971.20;;;;;;5075124;28;19905;-74
2021/07/26 09:55:39;;;;;;;;;;;794.20;1945.60;;;;;;5074932;28;19904;-74
2021/07/26 09:58:05;;;;;;;;;;;794.20;1945.60;;;;;;5075306;28;19909;-73
2021/07/26 10:00:32;;;;;;;;;;;794.30;1945.60;;;;;;5072475;28;20321;-75
2021/07/26 10:02:58;;;;;;;;;;;794.30;1945.60;;;;;;5075318;28;19950;-74
2021/07/26 10:05:23;;;;;;;;;;;794.20;1945.60;;;;;;5075303;28;19908;-75
2021/07/26 10:07:52;;;;;;;;;;;794.20;1945.60;;;;;;5075342;28;19904;-75
2021/07/26 10:10:19;;;;;;;;;;;794.10;1971.20;;;;;;5075380;28;19960;-73
2021/07/26 10:12:44;;;;;;;;;;;794.20;1996.80;;;;;;5075416;28;20340;-74
2021/07/26 10:15:10;;;;;;;;;;;794.10;1971.20;;;;;;5075107;28;19904;-75
2021/07/26 10:17:38;;;;;;;;;;;794.20;1945.60;;;;;;5075120;28;19912;-76
2021/07/26 10:20:04;;;;;;;;;;;794.30;1920.00;;;;;;5075344;28;20316;-74
2021/07/26 10:22:30;;;;;;;;;;;794.30;1920.00;;;;;;5074975;28;19999;-73
2021/07/26 10:25:04;;;;;;;;;;;794.50;1894.40;;;;;;5074967;28;20001;-73
2021/07/26 10:27:31;;;;;;;;;;;794.50;1945.60;;;;;;5075172;28;20310;-74
2021/07/26 10:29:57;;;;;;;;;;;794.50;1971.20;;;;;;5074641;28;19912;-73
2021/07/26 10:32:29;;;;;;;;;;;819.20;1945.60;;;;;;5072334;28;19947;-72
2021/07/26 10:34:58;;;;;;;;;;;819.20;1945.60;;;;;;5068844;28;19912;-73
2021/07/26 10:37:39;;;;;;;;;;;794.40;1945.60;;;;;;5070209;28;20365;-73
2021/07/26 10:40:17;;;;;;;;;;;794.30;1945.60;;;;;;5074854;28;19999;-74
2021/07/26 10:42:42;;;;;;;;;;;794.40;1945.60;;;;;;5074477;28;19919;-73
2021/07/26 10:45:08;;;;;;;;;;;794.00;1971.20;;;;;;5073254;28;20441;-73
2021/07/26 10:47:33;;;;;;;;;;;794.00;1971.20;;;;;;5074313;28;20380;-73
2021/07/26 10:50:09;;;;;;;;;;;794.10;1945.60;;;;;;5074307;28;20371;-75
2021/07/26 10:52:37;;;;;;;;;;;794.20;1945.60;;;;;;5074518;28;19911;-72
2021/07/26 10:55:04;;;;;;;;;;;794.00;1945.60;;;;;;5074261;28;19927;-73
2021/07/26 10:57:46;;;;;;;;;;;794.10;1971.20;;;;;;5072798;28;19958;-74
2021/07/26 11:00:24;;;;;;;;;;;794.00;1971.20;;;;;;5072687;28;19911;-73
2021/07/26 11:02:50;;;;;;;;;;;794.10;1971.20;;;;;;5073565;28;19911;-73
2021/07/26 11:05:24;;;;;;;;;;;794.10;1945.60;;;;;;5074062;28;19912;-74
2021/07/26 11:08:09;;;;;;;;;;;794.10;1945.60;;;;;;5073946;28;19905;-73
2021/07/26 11:10:53;;;;;;;;;;;794.20;1920.00;;;;;;5068024;28;20065;-73
2021/07/26 11:13:19;;;;;;;;;;;794.20;1971.20;;;;;;5058461;28;19956;-74
2021/07/26 11:15:45;;;;;;;;;;;794.30;1971.20;;;;;;5071269;28;19947;-73
2021/07/26 11:18:28;;;;;;;;;;;794.30;1945.60;;;;;;5054817;28;19905;-74
2021/07/26 11:21:00;;;;;;;;;;;794.50;1945.60;;;;;;5054011;28;19905;-73
2021/07/26 11:23:35;;;;;;;;;;;794.50;1920.00;;;;;;5057072;28;19956;-73
2021/07/26 11:26:02;;;;;;;;;;;794.40;1945.60;;;;;;5073843;28;19916;-73
2021/07/26 11:28:37;;;;;;;;;;;794.20;1996.80;;;;;;5054802;28;19915;-72
2021/07/26 11:31:03;;;;;;;;;;;794.20;1945.60;;;;;;5071014;28;19912;-72
2021/07/26 11:33:29;;;;;;;;;;;794.50;1971.20;;;;;;5067876;28;19908;-76
2021/07/26 11:35:55;;;;;;;;;;;819.30;1945.60;;;;;;5062609;28;19912;-75
2021/07/26 11:38:20;;;;;;;;;;;819.30;1971.20;;;;;;5067640;28;19904;-77
2021/07/26 11:40:46;;;;;;;;;;;819.30;1945.60;;;;;;5071983;28;19913;-80
2021/07/26 11:43:11;;;;;;;;;;;819.40;1945.60;;;;;;5073624;28;19954;-83
2021/07/26 11:45:37;;;;;;;;;;;819.30;1945.60;;;;;;5072476;28;20347;-78
2021/07/26 11:48:07;;;;;;;;;;;819.50;1971.20;;;;;;5073509;28;19904;-77
2021/07/26 11:50:36;;;;;;;;;;;819.60;1945.60;;;;;;5073215;28;19913;-76
2021/07/26 11:53:01;;;;;;;;;;;819.30;1945.60;;;;;;5073605;28;19912;-82
2021/07/26 11:55:30;;;;;;;;;;;819.30;1945.60;;;;;;5053583;28;19909;-79
2021/07/26 11:58:01;;;;;;;;;;;819.30;1971.20;;;;;;5060725;28;19916;-76
2021/07/26 12:00:28;;;;;;;;;;;819.30;1971.20;;;;;;5072706;28;19908;-80
2021/07/26 12:02:55;;;;;;;;;;;819.50;1920.00;;;;;;5073226;28;19909;-78
2021/07/26 12:05:26;;;;;;;;;;;819.50;1945.60;;;;;;5073021;28;19904;-79
2021/07/26 12:07:52;;;;;;;;;;;819.60;1920.00;;;;;;5071997;28;19925;-80
2021/07/26 12:10:30;;;;;;;;;;;819.50;1945.60;;;;;;5075794;28;19908;-77
2021/07/26 12:13:04;;;;;;;;;;;819.40;1945.60;;;;;;5072698;28;19920;-72
2021/07/26 12:15:30;;;;;;;;;;;819.50;1920.00;;;;;;5069051;28;20317;-74
2021/07/26 12:18:02;;;;;;;;;;;819.60;1945.60;;;;;;5053644;28;19915;-73
2021/07/26 12:20:28;;;;;;;;;;;819.60;1945.60;;;;;;5053502;28;19905;-74
2021/07/26 12:22:53;;;;;;;;;;;819.60;1945.60;;;;;;5053066;28;20011;-74
2021/07/26 12:25:21;;;;;;;;;;;819.60;1945.60;;;;;;5055201;28;19912;-79
2021/07/26 12:27:58;;;;;;;;;;;819.40;1945.60;;;;;;5054458;28;19976;-74
2021/07/26 12:30:34;;;;;;;;;;;819.20;1971.20;;;;;;5062654;28;19974;-75
2021/07/26 12:32:59;;;;;;;;;;;819.30;1971.20;;;;;;5062042;28;20147;-74
2021/07/26 12:35:26;;;;;;;;;;;819.40;1945.60;;;;;;5072405;28;20001;-77
2021/07/26 12:38:11;;;;;;;;;;;819.30;1945.60;;;;;;5072624;28;19990;-80
2021/07/26 12:40:40;;;;;;;;;;;794.50;1996.80;;;;;;5072110;28;20027;-76
2021/07/26 12:43:08;;;;;;;;;;;794.50;1971.20;;;;;;5072192;28;20450;-78
2021/07/26 12:45:34;;;;;;;;;;;794.50;1971.20;;;;;;5072014;28;19947;-79
2021/07/26 12:48:12;;;;;;;;;;;819.20;1945.60;;;;;;5071749;28;20374;-78
2021/07/26 12:50:42;;;;;;;;;;;819.30;1945.60;;;;;;5068387;28;19912;-77
2021/07/26 12:53:07;;;;;;;;;;;794.50;1920.00;;;;;;5072372;28;19904;-73
2021/07/26 12:55:33;;;;;;;;;;;794.50;1971.20;;;;;;5053597;28;20007;-74
2021/07/26 12:57:58;;;;;;;;;;;794.10;1996.80;;;;;;5072302;28;19909;-76
2021/07/26 13:00:24;;;;;;;;;;;794.00;1996.80;;;;;;5072133;28;19916;-75
2021/07/26 13:02:50;;;;;;;;;;;794.00;1996.80;;;;;;5072401;28;19905;-75
2021/07/26 13:05:16;;;;;;;;;;;794.00;1996.80;;;;;;5072360;28;19916;-76
2021/07/26 13:07:42;;;;;;;;;;;794.00;2022.40;;;;;;5055800;28;20346;-73
2021/07/26 13:10:08;;;;;;;;;;;794.30;1996.80;;;;;;5064164;28;19908;-75
2021/07/26 13:12:34;;;;;;;;;;;794.00;1996.80;;;;;;5076051;28;19919;-75
2021/07/26 13:15:02;;;;;;;;;;;794.00;2022.40;;;;;;5056263;28;19946;-74
2021/07/26 13:17:27;;;;;;;;;;;793.80;2022.40;;;;;;5063456;28;19905;-75
2021/07/26 13:19:54;;;;;;;;;;;793.70;2022.40;;;;;;5072310;28;19995;-76
2021/07/26 13:22:20;;;;;;;;;;;793.90;2022.40;;;;;;5075960;28;19904;-76
2021/07/26 13:24:46;;;;;;;;;;;794.00;2022.40;;;;;;5075866;28;19927;-76
2021/07/26 13:27:11;;;;;;;;;;;793.90;2022.40;;;;;;5075511;28;19904;-75
2021/07/26 13:29:37;;;;;;;;;;;793.90;2022.40;;;;;;5075739;28;19915;-75
2021/07/26 13:32:03;;;;;;;;;;;793.80;2022.40;;;;;;5075169;28;20385;-76
2021/07/26 13:34:28;;;;;;;;;;;793.70;2073.60;;;;;;5075685;28;19994;-76
2021/07/26 13:36:54;;;;;;;;;;;793.70;2022.40;;;;;;5074128;28;19904;-71
2021/07/26 13:39:21;;;;;;;;;;;793.70;2048.00;;;;;;5063461;28;19918;-78